This is the latest recevied weather packets stored in our database for station/object R2BLN-13. If no packets are shown the sender has not sent any weather packets the latest 10 day(s).
| Time | Temp. | Humidity | Pressure | Rain* | Wind** | Luminosity | Snow |
|---|---|---|---|---|---|---|---|
| 1787735184 | 20° C | 56% | 996.3 hPa | - | - | - | - |
| 1787734584 | 22.78° C | 52% | 996.2 hPa | - | - | - | - |
| 1787733984 | 22.78° C | 50% | 996.1 hPa | - | - | - | - |
| 1787733384 | 23.33° C | 53% | 995.9 hPa | - | - | - | - |
| 1787732784 | 21.11° C | 57% | 996 hPa | - | - | - | - |
| 1787732184 | 19.44° C | 59% | 996 hPa | - | - | - | - |
| 1787731584 | 21.67° C | 52% | 995.9 hPa | - | - | - | - |
| 1787730984 | 27.78° C | 53% | 995.8 hPa | - | - | - | - |
| 1787730384 | 20° C | 62% | 995.9 hPa | - | - | - | - |
| 1787729784 | 18.89° C | 63% | 995.8 hPa | - | - | - | - |
| 1787729184 | 19.44° C | 65% | 995.8 hPa | - | - | - | - |
| 1787728579 | 17.78° C | 67% | 995.8 hPa | - | - | - | - |
| 1787727954 | 17.22° C | 67% | 995.7 hPa | - | - | - | - |
| 1787727354 | 17.22° C | 67% | 995.6 hPa | - | - | - | - |
| 1787726754 | 16.67° C | 67% | 995.4 hPa | - | - | - | - |
| 1787726154 | 17.22° C | 65% | 995.5 hPa | - | - | - | - |
| 1787725554 | 18.33° C | 64% | 995.3 hPa | - | - | - | - |
| 1787724954 | 20° C | 62% | 995.1 hPa | - | - | - | - |
| 1787724354 | 17.78° C | 70% | 995.2 hPa | - | - | - | - |
| 1787723754 | 16.67° C | 69% | 995.1 hPa | - | - | - | - |
| 1787723154 | 16.67° C | 70% | 995 hPa | - | - | - | - |
| 1787722554 | 16.11° C | 72% | 995 hPa | - | - | - | - |
| 1787721954 | 16.11° C | 70% | 994.9 hPa | - | - | - | - |
| 1787721354 | 16.11° C | 72% | 994.8 hPa | - | - | - | - |
| 1787720749 | 16.11° C | 71% | 994.8 hPa | - | - | - | - |
* Rain since midnight (hover to see other rain measurements)
** Current wind speed in m/s (hover to see current wind gust speed)